sensor_id;sensor_type;location;lat;lon;timestamp;P1;durP1;ratioP1;P2;durP2;ratioP2
23046;SDS011;11691;51.462;6.902;2022-09-02T00:01:49;4.15;;;1.10;;
23046;SDS011;11691;51.462;6.902;2022-09-02T00:04:19;1.88;;;1.10;;
23046;SDS011;11691;51.462;6.902;2022-09-02T00:06:47;4.07;;;1.10;;
23046;SDS011;11691;51.462;6.902;2022-09-02T00:09:15;5.68;;;1.33;;
23046;SDS011;11691;51.462;6.902;2022-09-02T00:11:43;1.67;;;1.27;;
23046;SDS011;11691;51.462;6.902;2022-09-02T00:14:11;1.52;;;0.98;;
23046;SDS011;11691;51.462;6.902;2022-09-02T00:16:40;5.55;;;1.10;;
23046;SDS011;11691;51.462;6.902;2022-09-02T00:19:09;3.47;;;1.27;;
23046;SDS011;11691;51.462;6.902;2022-09-02T00:21:35;3.30;;;1.00;;
23046;SDS011;11691;51.462;6.902;2022-09-02T00:24:02;2.00;;;1.02;;
23046;SDS011;11691;51.462;6.902;2022-09-02T00:26:29;4.30;;;1.15;;
23046;SDS011;11691;51.462;6.902;2022-09-02T00:28:55;1.88;;;0.80;;
23046;SDS011;11691;51.462;6.902;2022-09-02T00:31:21;1.65;;;1.10;;
23046;SDS011;11691;51.462;6.902;2022-09-02T00:33:47;2.95;;;1.30;;
23046;SDS011;11691;51.462;6.902;2022-09-02T00:36:16;1.70;;;1.02;;
23046;SDS011;11691;51.462;6.902;2022-09-02T00:38:42;5.53;;;1.17;;
23046;SDS011;11691;51.462;6.902;2022-09-02T00:41:09;2.80;;;1.05;;
23046;SDS011;11691;51.462;6.902;2022-09-02T00:46:12;3.00;;;1.20;;
23046;SDS011;11691;51.462;6.902;2022-09-02T00:48:42;5.20;;;1.10;;
23046;SDS011;11691;51.462;6.902;2022-09-02T00:51:10;3.00;;;1.20;;
23046;SDS011;11691;51.462;6.902;2022-09-02T00:53:37;3.03;;;1.00;;
23046;SDS011;11691;51.462;6.902;2022-09-02T00:56:04;2.33;;;1.15;;
23046;SDS011;11691;51.462;6.902;2022-09-02T00:58:34;3.80;;;1.05;;
23046;SDS011;11691;51.462;6.902;2022-09-02T01:01:02;1.70;;;1.08;;
23046;SDS011;11691;51.462;6.902;2022-09-02T01:03:29;3.47;;;1.00;;
23046;SDS011;11691;51.462;6.902;2022-09-02T01:05:57;3.25;;;1.02;;
23046;SDS011;11691;51.462;6.902;2022-09-02T01:08:27;3.25;;;1.08;;
23046;SDS011;11691;51.462;6.902;2022-09-02T01:10:56;2.53;;;1.08;;
23046;SDS011;11691;51.462;6.902;2022-09-02T01:13:24;3.78;;;1.40;;
23046;SDS011;11691;51.462;6.902;2022-09-02T01:15:54;1.55;;;1.05;;
23046;SDS011;11691;51.462;6.902;2022-09-02T01:18:21;2.88;;;1.40;;
23046;SDS011;11691;51.462;6.902;2022-09-02T01:20:49;3.75;;;0.80;;
23046;SDS011;11691;51.462;6.902;2022-09-02T01:23:15;3.78;;;1.10;;
23046;SDS011;11691;51.462;6.902;2022-09-02T01:25:42;2.53;;;1.08;;
23046;SDS011;11691;51.462;6.902;2022-09-02T01:28:10;8.05;;;1.35;;
23046;SDS011;11691;51.462;6.902;2022-09-02T01:30:38;2.65;;;0.95;;
23046;SDS011;11691;51.462;6.902;2022-09-02T01:33:06;2.88;;;1.00;;
23046;SDS011;11691;51.462;6.902;2022-09-02T01:35:33;2.70;;;1.10;;
23046;SDS011;11691;51.462;6.902;2022-09-02T01:37:59;4.25;;;1.02;;
23046;SDS011;11691;51.462;6.902;2022-09-02T01:40:26;5.45;;;1.27;;
23046;SDS011;11691;51.462;6.902;2022-09-02T01:42:55;3.75;;;1.08;;
23046;SDS011;11691;51.462;6.902;2022-09-02T01:45:24;1.85;;;0.95;;
23046;SDS011;11691;51.462;6.902;2022-09-02T01:47:50;2.20;;;1.02;;
23046;SDS011;11691;51.462;6.902;2022-09-02T01:50:16;5.22;;;1.15;;
23046;SDS011;11691;51.462;6.902;2022-09-02T01:52:42;3.13;;;1.25;;
23046;SDS011;11691;51.462;6.902;2022-09-02T01:55:08;4.20;;;1.35;;
23046;SDS011;11691;51.462;6.902;2022-09-02T01:57:34;3.00;;;1.10;;
23046;SDS011;11691;51.462;6.902;2022-09-02T02:00:00;2.10;;;1.15;;
23046;SDS011;11691;51.462;6.902;2022-09-02T02:02:26;2.65;;;1.00;;
23046;SDS011;11691;51.462;6.902;2022-09-02T02:04:52;2.88;;;1.05;;
23046;SDS011;11691;51.462;6.902;2022-09-02T02:07:19;3.35;;;1.10;;
23046;SDS011;11691;51.462;6.902;2022-09-02T02:09:46;1.85;;;1.05;;
23046;SDS011;11691;51.462;6.902;2022-09-02T02:12:12;5.13;;;1.40;;
23046;SDS011;11691;51.462;6.902;2022-09-02T02:14:39;1.98;;;1.00;;
23046;SDS011;11691;51.462;6.902;2022-09-02T02:17:05;6.22;;;1.08;;
23046;SDS011;11691;51.462;6.902;2022-09-02T02:19:31;3.35;;;1.25;;
23046;SDS011;11691;51.462;6.902;2022-09-02T02:21:57;2.78;;;1.10;;
23046;SDS011;11691;51.462;6.902;2022-09-02T02:24:23;4.03;;;1.30;;
23046;SDS011;11691;51.462;6.902;2022-09-02T02:26:49;2.67;;;1.13;;
23046;SDS011;11691;51.462;6.902;2022-09-02T02:29:16;3.38;;;1.13;;
23046;SDS011;11691;51.462;6.902;2022-09-02T02:31:42;3.40;;;1.23;;
23046;SDS011;11691;51.462;6.902;2022-09-02T02:34:09;2.75;;;1.20;;
23046;SDS011;11691;51.462;6.902;2022-09-02T02:36:35;4.65;;;1.23;;
23046;SDS011;11691;51.462;6.902;2022-09-02T02:39:03;1.88;;;0.90;;
23046;SDS011;11691;51.462;6.902;2022-09-02T02:41:30;2.13;;;1.10;;
23046;SDS011;11691;51.462;6.902;2022-09-02T02:43:56;2.58;;;1.08;;
23046;SDS011;11691;51.462;6.902;2022-09-02T02:46:22;3.63;;;0.90;;
23046;SDS011;11691;51.462;6.902;2022-09-02T02:48:48;4.18;;;1.27;;
23046;SDS011;11691;51.462;6.902;2022-09-02T02:51:14;4.30;;;1.40;;
23046;SDS011;11691;51.462;6.902;2022-09-02T02:53:40;2.03;;;1.10;;
23046;SDS011;11691;51.462;6.902;2022-09-02T02:56:07;5.10;;;1.45;;
23046;SDS011;11691;51.462;6.902;2022-09-02T02:58:33;3.70;;;1.13;;
23046;SDS011;11691;51.462;6.902;2022-09-02T03:00:59;2.20;;;1.17;;
23046;SDS011;11691;51.462;6.902;2022-09-02T03:03:26;2.00;;;1.17;;
23046;SDS011;11691;51.462;6.902;2022-09-02T03:05:52;3.53;;;1.35;;
23046;SDS011;11691;51.462;6.902;2022-09-02T03:08:18;2.55;;;1.27;;
23046;SDS011;11691;51.462;6.902;2022-09-02T03:10:45;2.42;;;1.73;;
23046;SDS011;11691;51.462;6.902;2022-09-02T03:13:12;2.72;;;1.50;;
23046;SDS011;11691;51.462;6.902;2022-09-02T03:15:40;3.20;;;1.40;;
23046;SDS011;11691;51.462;6.902;2022-09-02T03:18:05;2.05;;;1.48;;
23046;SDS011;11691;51.462;6.902;2022-09-02T03:20:31;4.40;;;1.42;;
23046;SDS011;11691;51.462;6.902;2022-09-02T03:22:57;5.53;;;1.70;;
23046;SDS011;11691;51.462;6.902;2022-09-02T03:25:24;2.17;;;1.48;;
23046;SDS011;11691;51.462;6.902;2022-09-02T03:27:51;2.50;;;1.65;;
23046;SDS011;11691;51.462;6.902;2022-09-02T03:30:21;2.95;;;1.77;;
23046;SDS011;11691;51.462;6.902;2022-09-02T03:32:49;5.88;;;1.90;;
23046;SDS011;11691;51.462;6.902;2022-09-02T03:35:15;5.20;;;2.13;;
23046;SDS011;11691;51.462;6.902;2022-09-02T03:37:43;6.70;;;2.10;;
23046;SDS011;11691;51.462;6.902;2022-09-02T03:40:10;2.92;;;1.95;;
23046;SDS011;11691;51.462;6.902;2022-09-02T03:42:37;4.53;;;2.40;;
23046;SDS011;11691;51.462;6.902;2022-09-02T03:45:03;8.38;;;2.28;;
23046;SDS011;11691;51.462;6.902;2022-09-02T03:47:30;6.20;;;2.33;;
23046;SDS011;11691;51.462;6.902;2022-09-02T03:49:56;5.95;;;2.35;;
23046;SDS011;11691;51.462;6.902;2022-09-02T03:52:23;5.53;;;2.17;;
23046;SDS011;11691;51.462;6.902;2022-09-02T03:54:49;7.68;;;2.67;;
23046;SDS011;11691;51.462;6.902;2022-09-02T03:57:15;4.88;;;2.30;;
23046;SDS011;11691;51.462;6.902;2022-09-02T03:59:41;5.40;;;2.22;;
23046;SDS011;11691;51.462;6.902;2022-09-02T04:02:07;4.43;;;2.15;;
23046;SDS011;11691;51.462;6.902;2022-09-02T04:04:33;3.90;;;1.90;;
23046;SDS011;11691;51.462;6.902;2022-09-02T04:06:59;4.68;;;2.08;;
23046;SDS011;11691;51.462;6.902;2022-09-02T04:09:24;4.25;;;2.05;;
23046;SDS011;11691;51.462;6.902;2022-09-02T04:11:50;3.78;;;1.90;;
23046;SDS011;11691;51.462;6.902;2022-09-02T04:14:17;3.33;;;1.80;;
23046;SDS011;11691;51.462;6.902;2022-09-02T04:16:42;3.58;;;2.10;;
23046;SDS011;11691;51.462;6.902;2022-09-02T04:19:08;3.95;;;2.13;;
23046;SDS011;11691;51.462;6.902;2022-09-02T04:21:35;3.70;;;1.67;;
23046;SDS011;11691;51.462;6.902;2022-09-02T04:24:02;4.85;;;2.00;;
23046;SDS011;11691;51.462;6.902;2022-09-02T04:26:28;2.85;;;1.83;;
23046;SDS011;11691;51.462;6.902;2022-09-02T04:28:54;4.25;;;2.03;;
23046;SDS011;11691;51.462;6.902;2022-09-02T04:31:21;3.60;;;1.73;;
23046;SDS011;11691;51.462;6.902;2022-09-02T04:33:49;5.55;;;2.00;;
23046;SDS011;11691;51.462;6.902;2022-09-02T04:36:16;4.65;;;1.80;;
23046;SDS011;11691;51.462;6.902;2022-09-02T04:38:44;2.95;;;1.77;;
23046;SDS011;11691;51.462;6.902;2022-09-02T04:41:12;3.22;;;1.35;;
23046;SDS011;11691;51.462;6.902;2022-09-02T04:43:39;7.43;;;1.50;;
23046;SDS011;11691;51.462;6.902;2022-09-02T04:46:06;3.83;;;1.40;;
23046;SDS011;11691;51.462;6.902;2022-09-02T04:48:33;2.50;;;1.60;;
23046;SDS011;11691;51.462;6.902;2022-09-02T04:51:08;3.50;;;1.65;;
23046;SDS011;11691;51.462;6.902;2022-09-02T04:53:36;6.15;;;1.50;;
23046;SDS011;11691;51.462;6.902;2022-09-02T04:56:05;4.30;;;1.55;;
23046;SDS011;11691;51.462;6.902;2022-09-02T04:58:33;3.40;;;1.30;;
23046;SDS011;11691;51.462;6.902;2022-09-02T05:01:04;9.75;;;1.92;;
23046;SDS011;11691;51.462;6.902;2022-09-02T05:03:31;3.67;;;1.60;;
23046;SDS011;11691;51.462;6.902;2022-09-02T05:06:04;3.35;;;1.30;;
23046;SDS011;11691;51.462;6.902;2022-09-02T05:08:31;4.55;;;1.48;;
23046;SDS011;11691;51.462;6.902;2022-09-02T05:10:57;4.22;;;1.30;;
23046;SDS011;11691;51.462;6.902;2022-09-02T05:13:24;2.67;;;1.40;;
23046;SDS011;11691;51.462;6.902;2022-09-02T05:15:50;3.63;;;1.48;;
23046;SDS011;11691;51.462;6.902;2022-09-02T05:18:16;7.88;;;1.33;;
23046;SDS011;11691;51.462;6.902;2022-09-02T05:20:42;3.88;;;1.40;;
23046;SDS011;11691;51.462;6.902;2022-09-02T05:23:09;2.25;;;1.30;;
23046;SDS011;11691;51.462;6.902;2022-09-02T05:25:36;4.10;;;1.30;;
23046;SDS011;11691;51.462;6.902;2022-09-02T05:28:03;4.63;;;1.73;;
23046;SDS011;11691;51.462;6.902;2022-09-02T05:30:29;5.50;;;1.30;;
23046;SDS011;11691;51.462;6.902;2022-09-02T05:32:56;6.93;;;1.70;;
23046;SDS011;11691;51.462;6.902;2022-09-02T05:35:22;3.55;;;1.15;;
23046;SDS011;11691;51.462;6.902;2022-09-02T05:37:48;7.05;;;1.48;;
23046;SDS011;11691;51.462;6.902;2022-09-02T05:40:14;6.25;;;1.52;;
23046;SDS011;11691;51.462;6.902;2022-09-02T05:42:39;3.50;;;1.58;;
23046;SDS011;11691;51.462;6.902;2022-09-02T05:45:05;3.40;;;1.27;;
23046;SDS011;11691;51.462;6.902;2022-09-02T05:47:33;5.50;;;1.70;;
23046;SDS011;11691;51.462;6.902;2022-09-02T05:49:59;6.63;;;1.70;;
23046;SDS011;11691;51.462;6.902;2022-09-02T05:52:26;3.70;;;1.50;;
23046;SDS011;11691;51.462;6.902;2022-09-02T05:54:52;9.55;;;1.75;;
23046;SDS011;11691;51.462;6.902;2022-09-02T05:57:20;4.15;;;1.20;;
23046;SDS011;11691;51.462;6.902;2022-09-02T05:59:46;3.40;;;1.48;;
23046;SDS011;11691;51.462;6.902;2022-09-02T06:02:15;2.83;;;1.33;;
23046;SDS011;11691;51.462;6.902;2022-09-02T06:04:44;3.38;;;1.38;;
23046;SDS011;11691;51.462;6.902;2022-09-02T06:07:12;5.68;;;1.80;;
23046;SDS011;11691;51.462;6.902;2022-09-02T06:09:38;3.35;;;1.38;;
23046;SDS011;11691;51.462;6.902;2022-09-02T06:12:05;3.53;;;1.35;;
23046;SDS011;11691;51.462;6.902;2022-09-02T06:14:32;6.97;;;2.03;;
23046;SDS011;11691;51.462;6.902;2022-09-02T06:16:58;4.70;;;1.50;;
23046;SDS011;11691;51.462;6.902;2022-09-02T06:19:25;3.72;;;1.50;;
23046;SDS011;11691;51.462;6.902;2022-09-02T06:21:53;2.88;;;1.50;;
23046;SDS011;11691;51.462;6.902;2022-09-02T06:24:19;2.67;;;1.42;;
23046;SDS011;11691;51.462;6.902;2022-09-02T06:26:46;9.20;;;1.50;;
23046;SDS011;11691;51.462;6.902;2022-09-02T06:29:11;3.67;;;1.52;;
23046;SDS011;11691;51.462;6.902;2022-09-02T06:31:41;4.30;;;1.75;;
23046;SDS011;11691;51.462;6.902;2022-09-02T06:34:08;4.90;;;1.65;;
23046;SDS011;11691;51.462;6.902;2022-09-02T06:36:36;5.65;;;1.67;;
23046;SDS011;11691;51.462;6.902;2022-09-02T06:39:02;3.83;;;1.33;;
23046;SDS011;11691;51.462;6.902;2022-09-02T06:41:29;2.80;;;1.20;;
23046;SDS011;11691;51.462;6.902;2022-09-02T06:43:56;6.10;;;1.83;;
23046;SDS011;11691;51.462;6.902;2022-09-02T06:46:25;8.45;;;1.77;;
23046;SDS011;11691;51.462;6.902;2022-09-02T06:48:52;3.88;;;1.52;;
23046;SDS011;11691;51.462;6.902;2022-09-02T06:51:18;9.85;;;1.95;;
23046;SDS011;11691;51.462;6.902;2022-09-02T06:53:46;5.70;;;1.58;;
23046;SDS011;11691;51.462;6.902;2022-09-02T06:56:12;3.72;;;1.40;;
23046;SDS011;11691;51.462;6.902;2022-09-02T06:58:38;5.15;;;1.30;;
23046;SDS011;11691;51.462;6.902;2022-09-02T07:01:04;9.13;;;2.03;;
23046;SDS011;11691;51.462;6.902;2022-09-02T07:03:31;11.60;;;1.85;;
23046;SDS011;11691;51.462;6.902;2022-09-02T07:06:16;5.88;;;1.55;;
23046;SDS011;11691;51.462;6.902;2022-09-02T07:08:42;5.32;;;1.70;;
23046;SDS011;11691;51.462;6.902;2022-09-02T07:11:18;4.80;;;1.70;;
23046;SDS011;11691;51.462;6.902;2022-09-02T07:13:45;6.95;;;1.75;;
23046;SDS011;11691;51.462;6.902;2022-09-02T07:16:11;7.32;;;1.95;;
23046;SDS011;11691;51.462;6.902;2022-09-02T07:18:37;6.65;;;2.05;;
23046;SDS011;11691;51.462;6.902;2022-09-02T07:21:03;3.53;;;1.60;;
23046;SDS011;11691;51.462;6.902;2022-09-02T07:23:31;5.38;;;1.85;;
23046;SDS011;11691;51.462;6.902;2022-09-02T07:25:57;6.90;;;1.80;;
23046;SDS011;11691;51.462;6.902;2022-09-02T07:28:23;6.40;;;1.90;;
23046;SDS011;11691;51.462;6.902;2022-09-02T07:30:50;5.07;;;2.10;;
23046;SDS011;11691;51.462;6.902;2022-09-02T07:33:19;10.38;;;2.17;;
23046;SDS011;11691;51.462;6.902;2022-09-02T07:35:45;4.20;;;1.45;;
23046;SDS011;11691;51.462;6.902;2022-09-02T07:38:11;7.68;;;2.05;;
23046;SDS011;11691;51.462;6.902;2022-09-02T07:40:39;4.18;;;1.63;;
23046;SDS011;11691;51.462;6.902;2022-09-02T07:43:06;9.40;;;1.70;;
23046;SDS011;11691;51.462;6.902;2022-09-02T07:45:34;6.43;;;2.00;;
23046;SDS011;11691;51.462;6.902;2022-09-02T07:48:01;5.63;;;1.80;;
23046;SDS011;11691;51.462;6.902;2022-09-02T07:50:31;5.07;;;2.00;;
23046;SDS011;11691;51.462;6.902;2022-09-02T07:52:57;4.55;;;2.08;;
23046;SDS011;11691;51.462;6.902;2022-09-02T07:55:24;10.73;;;2.13;;
23046;SDS011;11691;51.462;6.902;2022-09-02T07:57:50;7.80;;;1.42;;
23046;SDS011;11691;51.462;6.902;2022-09-02T08:00:18;5.20;;;1.30;;
23046;SDS011;11691;51.462;6.902;2022-09-02T08:02:46;7.22;;;1.75;;
23046;SDS011;11691;51.462;6.902;2022-09-02T08:05:13;7.55;;;1.77;;
23046;SDS011;11691;51.462;6.902;2022-09-02T08:07:39;3.55;;;1.60;;
23046;SDS011;11691;51.462;6.902;2022-09-02T08:10:06;8.85;;;2.13;;
23046;SDS011;11691;51.462;6.902;2022-09-02T08:12:34;5.55;;;1.52;;
23046;SDS011;11691;51.462;6.902;2022-09-02T08:15:00;4.10;;;1.65;;
23046;SDS011;11691;51.462;6.902;2022-09-02T08:17:26;7.80;;;1.98;;
23046;SDS011;11691;51.462;6.902;2022-09-02T08:19:53;6.32;;;1.60;;
23046;SDS011;11691;51.462;6.902;2022-09-02T08:22:19;4.38;;;1.50;;
23046;SDS011;11691;51.462;6.902;2022-09-02T08:24:45;3.10;;;1.77;;
23046;SDS011;11691;51.462;6.902;2022-09-02T08:27:11;6.15;;;1.90;;
23046;SDS011;11691;51.462;6.902;2022-09-02T08:29:37;3.40;;;1.67;;
23046;SDS011;11691;51.462;6.902;2022-09-02T08:32:03;5.00;;;1.85;;
23046;SDS011;11691;51.462;6.902;2022-09-02T08:34:30;3.13;;;1.42;;
23046;SDS011;11691;51.462;6.902;2022-09-02T08:36:55;7.50;;;1.75;;
23046;SDS011;11691;51.462;6.902;2022-09-02T08:39:21;8.02;;;2.00;;
23046;SDS011;11691;51.462;6.902;2022-09-02T08:42:02;6.97;;;1.88;;
23046;SDS011;11691;51.462;6.902;2022-09-02T08:44:37;7.68;;;2.00;;
23046;SDS011;11691;51.462;6.902;2022-09-02T08:47:05;6.43;;;1.80;;
23046;SDS011;11691;51.462;6.902;2022-09-02T08:49:40;4.18;;;1.42;;
23046;SDS011;11691;51.462;6.902;2022-09-02T08:52:06;6.85;;;1.67;;
23046;SDS011;11691;51.462;6.902;2022-09-02T08:57:07;6.00;;;2.00;;
23046;SDS011;11691;51.462;6.902;2022-09-02T08:59:34;9.55;;;1.63;;
23046;SDS011;11691;51.462;6.902;2022-09-02T09:07:17;9.73;;;1.80;;
23046;SDS011;11691;51.462;6.902;2022-09-02T09:20:06;4.00;;;1.52;;
23046;SDS011;11691;51.462;6.902;2022-09-02T09:22:35;4.15;;;1.70;;
23046;SDS011;11691;51.462;6.902;2022-09-02T09:25:03;7.45;;;2.08;;
23046;SDS011;11691;51.462;6.902;2022-09-02T09:27:32;10.18;;;1.73;;
23046;SDS011;11691;51.462;6.902;2022-09-02T09:29:58;7.35;;;1.67;;
23046;SDS011;11691;51.462;6.902;2022-09-02T09:32:30;6.38;;;1.55;;
23046;SDS011;11691;51.462;6.902;2022-09-02T09:35:08;3.05;;;1.67;;
23046;SDS011;11691;51.462;6.902;2022-09-02T09:37:42;4.30;;;1.70;;
23046;SDS011;11691;51.462;6.902;2022-09-02T09:40:31;5.45;;;1.80;;
23046;SDS011;11691;51.462;6.902;2022-09-02T09:43:10;1.77;;;1.40;;
23046;SDS011;11691;51.462;6.902;2022-09-02T09:45:39;8.02;;;1.60;;
23046;SDS011;11691;51.462;6.902;2022-09-02T09:50:50;5.60;;;1.90;;
23046;SDS011;11691;51.462;6.902;2022-09-02T09:53:34;3.55;;;1.50;;
23046;SDS011;11691;51.462;6.902;2022-09-02T09:58:32;2.40;;;1.23;;
23046;SDS011;11691;51.462;6.902;2022-09-02T10:06:24;3.53;;;1.30;;
23046;SDS011;11691;51.462;6.902;2022-09-02T10:09:04;6.13;;;1.67;;
23046;SDS011;11691;51.462;6.902;2022-09-02T10:11:31;4.20;;;1.60;;
23046;SDS011;11691;51.462;6.902;2022-09-02T10:13:59;5.43;;;1.30;;
23046;SDS011;11691;51.462;6.902;2022-09-02T10:16:28;1.77;;;1.00;;
23046;SDS011;11691;51.462;6.902;2022-09-02T10:27:10;4.20;;;1.20;;
23046;SDS011;11691;51.462;6.902;2022-09-02T10:32:14;3.83;;;1.38;;
23046;SDS011;11691;51.462;6.902;2022-09-02T10:34:46;5.13;;;1.48;;
23046;SDS011;11691;51.462;6.902;2022-09-02T10:37:20;5.45;;;1.52;;
23046;SDS011;11691;51.462;6.902;2022-09-02T10:47:35;2.88;;;1.55;;
23046;SDS011;11691;51.462;6.902;2022-09-02T10:50:10;7.00;;;1.50;;
23046;SDS011;11691;51.462;6.902;2022-09-02T10:55:15;2.80;;;1.20;;
23046;SDS011;11691;51.462;6.902;2022-09-02T11:00:28;4.13;;;1.67;;
23046;SDS011;11691;51.462;6.902;2022-09-02T11:03:17;3.97;;;1.48;;
23046;SDS011;11691;51.462;6.902;2022-09-02T11:05:49;1.25;;;0.82;;
23046;SDS011;11691;51.462;6.902;2022-09-02T11:08:37;2.55;;;1.23;;
23046;SDS011;11691;51.462;6.902;2022-09-02T11:11:24;4.97;;;1.25;;
23046;SDS011;11691;51.462;6.902;2022-09-02T11:16:26;2.75;;;1.20;;
23046;SDS011;11691;51.462;6.902;2022-09-02T11:32:34;2.58;;;1.27;;
23046;SDS011;11691;51.462;6.902;2022-09-02T11:34:57;4.35;;;1.30;;
23046;SDS011;11691;51.462;6.902;2022-09-02T11:38:26;2.13;;;1.40;;
23046;SDS011;11691;51.462;6.902;2022-09-02T11:54:08;1.10;;;1.00;;
23046;SDS011;11691;51.462;6.902;2022-09-02T11:56:40;3.20;;;1.10;;
23046;SDS011;11691;51.462;6.902;2022-09-02T11:59:17;1.20;;;0.95;;
23046;SDS011;11691;51.462;6.902;2022-09-02T12:02:08;1.50;;;1.00;;
23046;SDS011;11691;51.462;6.902;2022-09-02T12:04:35;4.70;;;1.35;;
23046;SDS011;11691;51.462;6.902;2022-09-02T12:15:00;2.53;;;1.17;;
23046;SDS011;11691;51.462;6.902;2022-09-02T12:18:04;1.55;;;0.90;;
23046;SDS011;11691;51.462;6.902;2022-09-02T12:22:58;4.05;;;1.00;;
23046;SDS011;11691;51.462;6.902;2022-09-02T12:33:35;2.70;;;0.88;;
23046;SDS011;11691;51.462;6.902;2022-09-02T12:36:06;1.90;;;1.00;;
23046;SDS011;11691;51.462;6.902;2022-09-02T12:38:38;5.00;;;1.00;;
23046;SDS011;11691;51.462;6.902;2022-09-02T12:51:57;1.95;;;0.88;;
23046;SDS011;11691;51.462;6.902;2022-09-02T12:54:16;2.45;;;0.98;;
23046;SDS011;11691;51.462;6.902;2022-09-02T12:56:47;0.95;;;0.80;;
23046;SDS011;11691;51.462;6.902;2022-09-02T12:59:20;1.38;;;1.20;;
23046;SDS011;11691;51.462;6.902;2022-09-02T13:01:54;1.27;;;0.90;;
23046;SDS011;11691;51.462;6.902;2022-09-02T13:04:49;2.67;;;1.08;;
23046;SDS011;11691;51.462;6.902;2022-09-02T13:10:44;1.80;;;1.05;;
23046;SDS011;11691;51.462;6.902;2022-09-02T13:34:39;3.50;;;1.50;;
23046;SDS011;11691;51.462;6.902;2022-09-02T13:37:05;2.35;;;1.13;;
23046;SDS011;11691;51.462;6.902;2022-09-02T13:39:34;1.17;;;0.95;;
23046;SDS011;11691;51.462;6.902;2022-09-02T13:42:21;2.35;;;0.80;;
23046;SDS011;11691;51.462;6.902;2022-09-02T13:44:47;1.05;;;0.77;;
23046;SDS011;11691;51.462;6.902;2022-09-02T13:47:15;1.50;;;0.73;;
23046;SDS011;11691;51.462;6.902;2022-09-02T13:49:44;1.33;;;0.90;;
23046;SDS011;11691;51.462;6.902;2022-09-02T13:52:16;1.58;;;0.85;;
23046;SDS011;11691;51.462;6.902;2022-09-02T13:54:45;3.38;;;1.20;;
23046;SDS011;11691;51.462;6.902;2022-09-02T13:57:12;1.88;;;1.00;;
23046;SDS011;11691;51.462;6.902;2022-09-02T13:59:46;2.17;;;0.90;;
23046;SDS011;11691;51.462;6.902;2022-09-02T14:04:56;1.42;;;1.00;;
23046;SDS011;11691;51.462;6.902;2022-09-02T14:07:29;3.85;;;0.80;;
23046;SDS011;11691;51.462;6.902;2022-09-02T14:09:56;1.85;;;0.80;;
23046;SDS011;11691;51.462;6.902;2022-09-02T14:12:22;1.85;;;0.95;;
23046;SDS011;11691;51.462;6.902;2022-09-02T14:14:50;3.10;;;1.10;;
23046;SDS011;11691;51.462;6.902;2022-09-02T14:17:26;2.85;;;1.08;;
23046;SDS011;11691;51.462;6.902;2022-09-02T14:20:08;1.23;;;0.77;;
23046;SDS011;11691;51.462;6.902;2022-09-02T14:22:34;1.52;;;1.10;;
23046;SDS011;11691;51.462;6.902;2022-09-02T14:25:16;1.13;;;0.90;;
23046;SDS011;11691;51.462;6.902;2022-09-02T14:27:48;3.88;;;0.90;;
23046;SDS011;11691;51.462;6.902;2022-09-02T14:30:23;1.73;;;0.90;;
23046;SDS011;11691;51.462;6.902;2022-09-02T14:41:18;2.03;;;1.05;;
23046;SDS011;11691;51.462;6.902;2022-09-02T14:43:55;3.20;;;0.90;;
23046;SDS011;11691;51.462;6.902;2022-09-02T14:49:08;0.98;;;0.75;;
23046;SDS011;11691;51.462;6.902;2022-09-02T14:51:46;2.33;;;1.10;;
23046;SDS011;11691;51.462;6.902;2022-09-02T14:57:00;3.90;;;1.20;;
23046;SDS011;11691;51.462;6.902;2022-09-02T14:59:26;3.50;;;1.00;;
23046;SDS011;11691;51.462;6.902;2022-09-02T15:01:52;3.15;;;0.77;;
23046;SDS011;11691;51.462;6.902;2022-09-02T15:04:19;1.63;;;0.80;;
23046;SDS011;11691;51.462;6.902;2022-09-02T15:06:45;2.05;;;1.13;;
23046;SDS011;11691;51.462;6.902;2022-09-02T15:09:12;2.15;;;0.90;;
23046;SDS011;11691;51.462;6.902;2022-09-02T15:11:40;2.92;;;1.20;;
23046;SDS011;11691;51.462;6.902;2022-09-02T15:14:09;1.38;;;0.90;;
23046;SDS011;11691;51.462;6.902;2022-09-02T15:16:36;3.20;;;1.30;;
23046;SDS011;11691;51.462;6.902;2022-09-02T15:19:02;2.88;;;1.00;;
23046;SDS011;11691;51.462;6.902;2022-09-02T15:21:29;1.30;;;1.00;;
23046;SDS011;11691;51.462;6.902;2022-09-02T15:23:55;1.75;;;0.95;;
23046;SDS011;11691;51.462;6.902;2022-09-02T15:26:21;4.72;;;0.88;;
23046;SDS011;11691;51.462;6.902;2022-09-02T15:28:47;6.03;;;1.42;;
23046;SDS011;11691;51.462;6.902;2022-09-02T15:31:13;2.50;;;1.08;;
23046;SDS011;11691;51.462;6.902;2022-09-02T15:33:39;2.08;;;1.20;;
23046;SDS011;11691;51.462;6.902;2022-09-02T15:36:09;3.55;;;0.80;;
23046;SDS011;11691;51.462;6.902;2022-09-02T15:38:36;3.10;;;0.95;;
23046;SDS011;11691;51.462;6.902;2022-09-02T15:41:17;2.00;;;1.10;;
23046;SDS011;11691;51.462;6.902;2022-09-02T15:43:44;1.95;;;1.10;;
23046;SDS011;11691;51.462;6.902;2022-09-02T15:46:18;1.88;;;1.17;;
23046;SDS011;11691;51.462;6.902;2022-09-02T15:48:45;2.13;;;1.35;;
23046;SDS011;11691;51.462;6.902;2022-09-02T15:51:11;1.38;;;1.05;;
23046;SDS011;11691;51.462;6.902;2022-09-02T15:53:38;2.55;;;1.00;;
23046;SDS011;11691;51.462;6.902;2022-09-02T15:56:04;3.17;;;1.20;;
23046;SDS011;11691;51.462;6.902;2022-09-02T15:58:39;2.85;;;1.23;;
23046;SDS011;11691;51.462;6.902;2022-09-02T16:01:05;3.33;;;1.25;;
23046;SDS011;11691;51.462;6.902;2022-09-02T16:03:31;1.75;;;1.10;;
23046;SDS011;11691;51.462;6.902;2022-09-02T16:06:03;4.65;;;1.17;;
23046;SDS011;11691;51.462;6.902;2022-09-02T16:08:30;2.25;;;1.10;;
23046;SDS011;11691;51.462;6.902;2022-09-02T16:10:56;3.20;;;0.93;;
23046;SDS011;11691;51.462;6.902;2022-09-02T16:13:22;3.65;;;1.08;;
23046;SDS011;11691;51.462;6.902;2022-09-02T16:15:48;1.50;;;0.95;;
23046;SDS011;11691;51.462;6.902;2022-09-02T16:18:17;2.65;;;0.95;;
23046;SDS011;11691;51.462;6.902;2022-09-02T16:20:43;4.13;;;1.30;;
23046;SDS011;11691;51.462;6.902;2022-09-02T16:23:09;5.03;;;1.17;;
23046;SDS011;11691;51.462;6.902;2022-09-02T16:25:35;2.08;;;1.00;;
23046;SDS011;11691;51.462;6.902;2022-09-02T16:28:01;1.50;;;1.13;;
23046;SDS011;11691;51.462;6.902;2022-09-02T16:30:27;4.28;;;1.50;;
23046;SDS011;11691;51.462;6.902;2022-09-02T16:32:54;1.83;;;1.13;;
23046;SDS011;11691;51.462;6.902;2022-09-02T16:35:20;4.13;;;1.50;;
23046;SDS011;11691;51.462;6.902;2022-09-02T16:37:46;5.85;;;1.42;;
23046;SDS011;11691;51.462;6.902;2022-09-02T16:40:12;2.25;;;1.85;;
23046;SDS011;11691;51.462;6.902;2022-09-02T16:42:45;6.03;;;3.33;;
23046;SDS011;11691;51.462;6.902;2022-09-02T16:45:11;4.32;;;2.72;;
23046;SDS011;11691;51.462;6.902;2022-09-02T16:47:37;5.88;;;3.58;;
23046;SDS011;11691;51.462;6.902;2022-09-02T16:50:04;3.85;;;3.25;;
23046;SDS011;11691;51.462;6.902;2022-09-02T16:52:30;6.25;;;2.60;;
23046;SDS011;11691;51.462;6.902;2022-09-02T16:54:58;2.85;;;1.60;;
23046;SDS011;11691;51.462;6.902;2022-09-02T16:57:24;6.22;;;1.33;;
23046;SDS011;11691;51.462;6.902;2022-09-02T16:59:50;4.13;;;1.52;;
23046;SDS011;11691;51.462;6.902;2022-09-02T17:02:16;1.42;;;1.10;;
23046;SDS011;11691;51.462;6.902;2022-09-02T17:04:42;3.50;;;1.67;;
23046;SDS011;11691;51.462;6.902;2022-09-02T17:07:08;4.53;;;1.50;;
23046;SDS011;11691;51.462;6.902;2022-09-02T17:09:35;2.03;;;1.25;;
23046;SDS011;11691;51.462;6.902;2022-09-02T17:12:01;1.70;;;1.15;;
23046;SDS011;11691;51.462;6.902;2022-09-02T17:14:26;3.28;;;1.58;;
23046;SDS011;11691;51.462;6.902;2022-09-02T17:16:52;2.33;;;1.23;;
23046;SDS011;11691;51.462;6.902;2022-09-02T17:19:18;1.83;;;1.20;;
23046;SDS011;11691;51.462;6.902;2022-09-02T17:21:54;5.13;;;1.38;;
23046;SDS011;11691;51.462;6.902;2022-09-02T17:24:20;7.05;;;1.50;;
23046;SDS011;11691;51.462;6.902;2022-09-02T17:26:48;7.43;;;1.33;;
23046;SDS011;11691;51.462;6.902;2022-09-02T17:29:15;4.38;;;1.30;;
23046;SDS011;11691;51.462;6.902;2022-09-02T17:31:43;3.85;;;1.27;;